sensor_id;sensor_type;location;lat;lon;timestamp;pressure;altitude;pressure_sealevel;temperature;humidity
13407;BME280;6774;48.208;10.766;2022-12-07T00:01:08;95505.06;;;3.12;91.05
13407;BME280;6774;48.208;10.766;2022-12-07T00:03:37;95508.50;;;3.12;90.98
13407;BME280;6774;48.208;10.766;2022-12-07T00:06:06;95507.78;;;3.10;90.66
13407;BME280;6774;48.208;10.766;2022-12-07T00:08:35;95510.31;;;3.02;90.78
13407;BME280;6774;48.208;10.766;2022-12-07T00:11:04;95515.63;;;3.01;90.68
13407;BME280;6774;48.208;10.766;2022-12-07T00:13:34;95511.69;;;2.87;91.08
13407;BME280;6774;48.208;10.766;2022-12-07T00:16:03;95506.50;;;2.87;91.30
13407;BME280;6774;48.208;10.766;2022-12-07T00:18:33;95509.66;;;2.81;91.64
13407;BME280;6774;48.208;10.766;2022-12-07T00:21:01;95510.06;;;2.86;91.35
13407;BME280;6774;48.208;10.766;2022-12-07T00:23:29;95506.19;;;2.90;91.19
13407;BME280;6774;48.208;10.766;2022-12-07T00:26:03;95513.63;;;2.85;91.44
13407;BME280;6774;48.208;10.766;2022-12-07T00:28:31;95503.22;;;2.85;91.99
13407;BME280;6774;48.208;10.766;2022-12-07T00:31:02;95495.94;;;2.79;91.84
13407;BME280;6774;48.208;10.766;2022-12-07T00:33:30;95506.78;;;2.84;91.37
13407;BME280;6774;48.208;10.766;2022-12-07T00:36:01;95497.72;;;2.88;90.90
13407;BME280;6774;48.208;10.766;2022-12-07T00:38:30;95505.00;;;2.84;91.32
13407;BME280;6774;48.208;10.766;2022-12-07T00:41:00;95494.97;;;2.80;91.42
13407;BME280;6774;48.208;10.766;2022-12-07T00:43:28;95501.97;;;2.79;92.01
13407;BME280;6774;48.208;10.766;2022-12-07T00:45:57;95497.88;;;2.67;92.13
13407;BME280;6774;48.208;10.766;2022-12-07T00:48:25;95500.75;;;2.74;91.67
13407;BME280;6774;48.208;10.766;2022-12-07T00:50:53;95501.69;;;2.73;92.23
13407;BME280;6774;48.208;10.766;2022-12-07T00:53:23;95500.59;;;2.85;91.82
13407;BME280;6774;48.208;10.766;2022-12-07T00:55:51;95494.13;;;2.89;91.85
13407;BME280;6774;48.208;10.766;2022-12-07T00:58:19;95494.13;;;2.89;91.48
13407;BME280;6774;48.208;10.766;2022-12-07T01:00:47;95499.34;;;2.89;91.68
13407;BME280;6774;48.208;10.766;2022-12-07T01:03:16;95498.00;;;2.85;91.74
13407;BME280;6774;48.208;10.766;2022-12-07T01:05:51;95496.34;;;2.84;91.94
13407;BME280;6774;48.208;10.766;2022-12-07T01:08:19;95499.63;;;2.86;91.65
13407;BME280;6774;48.208;10.766;2022-12-07T01:10:49;95495.25;;;2.87;91.62
13407;BME280;6774;48.208;10.766;2022-12-07T01:13:24;95498.00;;;2.85;91.45
13407;BME280;6774;48.208;10.766;2022-12-07T01:15:55;95498.00;;;2.85;91.80
13407;BME280;6774;48.208;10.766;2022-12-07T01:18:23;95499.91;;;2.83;91.57
13407;BME280;6774;48.208;10.766;2022-12-07T01:20:57;95501.56;;;2.84;91.19
13407;BME280;6774;48.208;10.766;2022-12-07T01:23:25;95497.59;;;2.80;91.24
13407;BME280;6774;48.208;10.766;2022-12-07T01:25:56;95500.03;;;2.81;91.62
13407;BME280;6774;48.208;10.766;2022-12-07T01:28:24;95503.75;;;2.79;91.17
13407;BME280;6774;48.208;10.766;2022-12-07T01:30:56;95504.78;;;3.15;90.67
13407;BME280;6774;48.208;10.766;2022-12-07T01:33:26;95503.34;;;3.30;89.29
13407;BME280;6774;48.208;10.766;2022-12-07T01:36:00;95503.59;;;3.37;88.82
13407;BME280;6774;48.208;10.766;2022-12-07T01:38:29;95505.94;;;3.40;88.56
13407;BME280;6774;48.208;10.766;2022-12-07T01:40:59;95501.53;;;3.40;88.54
13407;BME280;6774;48.208;10.766;2022-12-07T01:43:29;95503.88;;;3.34;88.51
13407;BME280;6774;48.208;10.766;2022-12-07T01:45:58;95500.97;;;3.00;89.06
13407;BME280;6774;48.208;10.766;2022-12-07T01:48:29;95498.00;;;2.85;90.44
13407;BME280;6774;48.208;10.766;2022-12-07T01:51:01;95499.22;;;2.81;90.80
13407;BME280;6774;48.208;10.766;2022-12-07T01:53:34;95493.88;;;2.82;90.91
13407;BME280;6774;48.208;10.766;2022-12-07T01:56:05;95499.38;;;2.79;91.16
13407;BME280;6774;48.208;10.766;2022-12-07T01:58:36;95498.25;;;3.29;89.45
13407;BME280;6774;48.208;10.766;2022-12-07T02:01:04;95495.53;;;3.30;88.52
13407;BME280;6774;48.208;10.766;2022-12-07T02:03:36;95487.16;;;3.27;88.37
13407;BME280;6774;48.208;10.766;2022-12-07T02:06:07;95494.56;;;3.31;88.06
13407;BME280;6774;48.208;10.766;2022-12-07T02:08:35;95496.75;;;3.26;88.73
13407;BME280;6774;48.208;10.766;2022-12-07T02:11:05;95492.09;;;3.30;88.41
13407;BME280;6774;48.208;10.766;2022-12-07T02:13:36;95485.78;;;3.32;88.64
13407;BME280;6774;48.208;10.766;2022-12-07T02:16:15;95497.69;;;3.35;88.66
13407;BME280;6774;48.208;10.766;2022-12-07T02:18:55;95489.34;;;3.31;88.99
13407;BME280;6774;48.208;10.766;2022-12-07T02:21:36;95492.78;;;3.32;88.77
13407;BME280;6774;48.208;10.766;2022-12-07T02:24:14;95501.28;;;3.34;88.29
13407;BME280;6774;48.208;10.766;2022-12-07T02:29:47;95485.47;;;3.35;88.70
13407;BME280;6774;48.208;10.766;2022-12-07T02:32:23;95489.56;;;3.38;88.18
13407;BME280;6774;48.208;10.766;2022-12-07T02:34:55;95484.81;;;3.33;88.41
13407;BME280;6774;48.208;10.766;2022-12-07T02:37:34;95490.31;;;3.30;88.10
13407;BME280;6774;48.208;10.766;2022-12-07T02:40:09;95489.50;;;3.30;88.50
13407;BME280;6774;48.208;10.766;2022-12-07T02:42:42;95493.47;;;3.24;88.75
13407;BME280;6774;48.208;10.766;2022-12-07T02:45:15;95483.06;;;3.24;89.19
13407;BME280;6774;48.208;10.766;2022-12-07T02:47:48;95484.44;;;3.19;90.25
13407;BME280;6774;48.208;10.766;2022-12-07T02:50:20;95494.88;;;3.19;89.99
13407;BME280;6774;48.208;10.766;2022-12-07T02:52:48;95487.63;;;3.12;89.95
13407;BME280;6774;48.208;10.766;2022-12-07T02:55:19;95488.16;;;3.16;89.66
13407;BME280;6774;48.208;10.766;2022-12-07T02:57:57;95484.06;;;3.13;90.82
13407;BME280;6774;48.208;10.766;2022-12-07T03:00:36;95486.56;;;3.05;90.99
13407;BME280;6774;48.208;10.766;2022-12-07T03:03:10;95484.06;;;3.13;90.94
13407;BME280;6774;48.208;10.766;2022-12-07T03:05:58;95479.81;;;3.12;90.67
13407;BME280;6774;48.208;10.766;2022-12-07T03:08:33;95482.78;;;3.18;90.33
13407;BME280;6774;48.208;10.766;2022-12-07T03:11:05;95481.41;;;3.23;90.37
13407;BME280;6774;48.208;10.766;2022-12-07T03:13:40;95478.97;;;3.22;90.56
13407;BME280;6774;48.208;10.766;2022-12-07T03:16:14;95474.97;;;3.18;90.15
13407;BME280;6774;48.208;10.766;2022-12-07T03:18:47;95470.75;;;3.07;90.30
13407;BME280;6774;48.208;10.766;2022-12-07T03:21:21;95479.53;;;3.16;90.84
13407;BME280;6774;48.208;10.766;2022-12-07T03:23:54;95481.56;;;3.22;89.63
13407;BME280;6774;48.208;10.766;2022-12-07T03:26:28;95476.47;;;3.30;89.59
13407;BME280;6774;48.208;10.766;2022-12-07T03:29:06;95476.50;;;3.10;89.54
13407;BME280;6774;48.208;10.766;2022-12-07T03:31:39;95481.50;;;2.94;90.71
13407;BME280;6774;48.208;10.766;2022-12-07T03:34:12;95487.22;;;3.07;90.21
13407;BME280;6774;48.208;10.766;2022-12-07T03:36:47;95483.66;;;3.08;90.15
13407;BME280;6774;48.208;10.766;2022-12-07T03:39:23;95482.13;;;3.16;89.64
13407;BME280;6774;48.208;10.766;2022-12-07T03:41:51;95483.06;;;3.24;89.30
13407;BME280;6774;48.208;10.766;2022-12-07T03:44:20;95485.66;;;3.24;88.85
13407;BME280;6774;48.208;10.766;2022-12-07T03:46:58;95481.41;;;3.23;88.45
13407;BME280;6774;48.208;10.766;2022-12-07T03:49:35;95471.81;;;3.24;88.60
13407;BME280;6774;48.208;10.766;2022-12-07T03:52:10;95473.59;;;3.23;88.72
13407;BME280;6774;48.208;10.766;2022-12-07T03:54:44;95468.53;;;3.22;88.13
13407;BME280;6774;48.208;10.766;2022-12-07T03:57:16;95474.00;;;3.19;89.08
13407;BME280;6774;48.208;10.766;2022-12-07T04:00:06;95471.28;;;3.10;89.20
13407;BME280;6774;48.208;10.766;2022-12-07T04:02:42;95472.66;;;3.14;89.02
13407;BME280;6774;48.208;10.766;2022-12-07T04:05:11;95480.50;;;3.14;89.33
13407;BME280;6774;48.208;10.766;2022-12-07T04:07:39;95477.72;;;3.16;88.99
13407;BME280;6774;48.208;10.766;2022-12-07T04:10:08;95471.69;;;3.16;88.60
13407;BME280;6774;48.208;10.766;2022-12-07T04:12:36;95475.41;;;3.13;89.09
13407;BME280;6774;48.208;10.766;2022-12-07T04:15:06;95475.13;;;3.16;88.95
13407;BME280;6774;48.208;10.766;2022-12-07T04:17:34;95479.94;;;3.21;88.44
13407;BME280;6774;48.208;10.766;2022-12-07T04:20:05;95479.94;;;3.21;88.68
13407;BME280;6774;48.208;10.766;2022-12-07T04:22:34;95479.22;;;3.19;88.45
13407;BME280;6774;48.208;10.766;2022-12-07T04:25:02;95478.13;;;3.21;88.84
13407;BME280;6774;48.208;10.766;2022-12-07T04:27:30;95473.19;;;3.18;88.73
13407;BME280;6774;48.208;10.766;2022-12-07T04:29:58;95474.81;;;3.19;88.78
13407;BME280;6774;48.208;10.766;2022-12-07T04:32:27;95468.53;;;3.22;89.06
13407;BME280;6774;48.208;10.766;2022-12-07T04:34:55;95476.50;;;3.20;88.55
13407;BME280;6774;48.208;10.766;2022-12-07T04:37:24;95474.56;;;3.22;88.38
13407;BME280;6774;48.208;10.766;2022-12-07T04:39:52;95475.22;;;3.24;88.29
13407;BME280;6774;48.208;10.766;2022-12-07T04:42:20;95467.56;;;3.23;88.31
13407;BME280;6774;48.208;10.766;2022-12-07T04:44:48;95467.41;;;3.24;88.77
13407;BME280;6774;48.208;10.766;2022-12-07T04:47:17;95460.00;;;3.20;88.49
13407;BME280;6774;48.208;10.766;2022-12-07T04:49:45;95465.22;;;3.20;88.66
13407;BME280;6774;48.208;10.766;2022-12-07T04:52:12;95468.53;;;3.22;88.82
13407;BME280;6774;48.208;10.766;2022-12-07T04:54:41;95457.28;;;3.21;88.31
13407;BME280;6774;48.208;10.766;2022-12-07T04:57:09;95474.00;;;3.19;88.83
13407;BME280;6774;48.208;10.766;2022-12-07T04:59:37;95469.91;;;3.16;88.96
13407;BME280;6774;48.208;10.766;2022-12-07T05:02:11;95471.69;;;3.16;89.01
13407;BME280;6774;48.208;10.766;2022-12-07T05:04:39;95472.13;;;3.11;88.66
13407;BME280;6774;48.208;10.766;2022-12-07T05:07:06;95471.84;;;3.14;89.38
13407;BME280;6774;48.208;10.766;2022-12-07T05:09:34;95477.34;;;3.11;89.10
13407;BME280;6774;48.208;10.766;2022-12-07T05:12:04;95476.50;;;3.10;88.95
13407;BME280;6774;48.208;10.766;2022-12-07T05:14:32;95482.84;;;3.08;89.27
13407;BME280;6774;48.208;10.766;2022-12-07T05:17:00;95485.03;;;3.12;89.02
13407;BME280;6774;48.208;10.766;2022-12-07T05:19:28;95484.31;;;3.10;89.29
13407;BME280;6774;48.208;10.766;2022-12-07T05:21:56;95482.56;;;3.11;89.14
13407;BME280;6774;48.208;10.766;2022-12-07T05:24:24;95478.72;;;3.05;89.25
13407;BME280;6774;48.208;10.766;2022-12-07T05:26:53;95465.69;;;3.05;89.39
13407;BME280;6774;48.208;10.766;2022-12-07T05:29:23;95472.00;;;3.12;88.98
13407;BME280;6774;48.208;10.766;2022-12-07T05:31:50;95476.25;;;3.13;88.62
13407;BME280;6774;48.208;10.766;2022-12-07T05:34:18;95469.94;;;3.06;89.31
13407;BME280;6774;48.208;10.766;2022-12-07T05:36:46;95478.47;;;2.99;89.63
13407;BME280;6774;48.208;10.766;2022-12-07T05:39:14;95480.94;;;3.00;89.30
13407;BME280;6774;48.208;10.766;2022-12-07T05:41:41;95473.41;;;2.97;89.65
13407;BME280;6774;48.208;10.766;2022-12-07T05:44:29;95473.56;;;2.96;90.18
13407;BME280;6774;48.208;10.766;2022-12-07T05:46:57;95481.38;;;2.96;90.44
13407;BME280;6774;48.208;10.766;2022-12-07T05:49:25;95476.00;;;2.97;90.15
13407;BME280;6774;48.208;10.766;2022-12-07T05:51:53;95475.03;;;2.98;90.15
13407;BME280;6774;48.208;10.766;2022-12-07T05:54:21;95475.19;;;2.97;90.32
13407;BME280;6774;48.208;10.766;2022-12-07T05:56:48;95474.38;;;2.96;90.34
13407;BME280;6774;48.208;10.766;2022-12-07T05:59:16;95478.63;;;2.97;90.35
13407;BME280;6774;48.208;10.766;2022-12-07T06:01:51;95474.06;;;2.99;90.22
13407;BME280;6774;48.208;10.766;2022-12-07T06:04:20;95479.03;;;3.02;90.18
13407;BME280;6774;48.208;10.766;2022-12-07T06:06:48;95479.84;;;3.03;89.91
13407;BME280;6774;48.208;10.766;2022-12-07T06:09:17;95478.72;;;3.05;89.72
13407;BME280;6774;48.208;10.766;2022-12-07T06:11:45;95479.41;;;3.07;89.56
13407;BME280;6774;48.208;10.766;2022-12-07T06:14:31;95480.66;;;3.03;89.54
13407;BME280;6774;48.208;10.766;2022-12-07T06:17:00;95478.63;;;2.97;89.88
13407;BME280;6774;48.208;10.766;2022-12-07T06:19:28;95490.69;;;2.98;90.25
13407;BME280;6774;48.208;10.766;2022-12-07T06:21:57;95485.88;;;3.03;89.53
13407;BME280;6774;48.208;10.766;2022-12-07T06:24:25;95490.81;;;3.06;89.42
13407;BME280;6774;48.208;10.766;2022-12-07T06:26:53;95485.31;;;3.00;89.83
13407;BME280;6774;48.208;10.766;2022-12-07T06:29:21;95478.31;;;3.00;89.61
13407;BME280;6774;48.208;10.766;2022-12-07T06:31:49;95481.34;;;3.05;89.79
13407;BME280;6774;48.208;10.766;2022-12-07T06:34:20;95484.25;;;3.02;89.67
13407;BME280;6774;48.208;10.766;2022-12-07T06:36:49;95484.50;;;2.99;89.73
13407;BME280;6774;48.208;10.766;2022-12-07T06:39:18;95486.28;;;2.99;89.55
13407;BME280;6774;48.208;10.766;2022-12-07T06:41:47;95487.41;;;2.96;89.77
13407;BME280;6774;48.208;10.766;2022-12-07T06:44:14;95491.66;;;2.97;89.83
13407;BME280;6774;48.208;10.766;2022-12-07T06:46:42;95484.78;;;2.96;89.48
13407;BME280;6774;48.208;10.766;2022-12-07T06:49:10;95490.69;;;2.98;89.34
13407;BME280;6774;48.208;10.766;2022-12-07T06:51:40;95492.31;;;2.99;89.83
13407;BME280;6774;48.208;10.766;2022-12-07T06:54:09;95494.94;;;2.99;89.54
13407;BME280;6774;48.208;10.766;2022-12-07T06:56:37;95495.22;;;2.96;89.33
13407;BME280;6774;48.208;10.766;2022-12-07T06:59:06;95493.59;;;2.95;89.90
13407;BME280;6774;48.208;10.766;2022-12-07T07:01:34;95496.56;;;3.00;88.91
13407;BME280;6774;48.208;10.766;2022-12-07T07:04:03;95493.28;;;2.98;88.96
13407;BME280;6774;48.208;10.766;2022-12-07T07:06:31;95496.31;;;3.03;89.23
13407;BME280;6774;48.208;10.766;2022-12-07T07:09:00;95488.63;;;3.02;89.10
13407;BME280;6774;48.208;10.766;2022-12-07T07:11:28;95496.03;;;2.97;88.84
13407;BME280;6774;48.208;10.766;2022-12-07T07:13:56;95488.38;;;2.95;89.29
13407;BME280;6774;48.208;10.766;2022-12-07T07:16:29;95498.50;;;2.98;88.63
13407;BME280;6774;48.208;10.766;2022-12-07T07:18:58;95496.72;;;2.99;89.19
13407;BME280;6774;48.208;10.766;2022-12-07T07:21:26;95496.31;;;3.03;89.25
13407;BME280;6774;48.208;10.766;2022-12-07T07:23:54;95502.06;;;2.97;89.27
13407;BME280;6774;48.208;10.766;2022-12-07T07:26:24;95495.50;;;3.03;89.23
13407;BME280;6774;48.208;10.766;2022-12-07T07:28:51;95494.06;;;3.08;88.65
13407;BME280;6774;48.208;10.766;2022-12-07T07:31:19;95493.00;;;3.11;88.80
13407;BME280;6774;48.208;10.766;2022-12-07T07:33:47;95504.50;;;3.08;88.32
13407;BME280;6774;48.208;10.766;2022-12-07T07:36:15;95501.47;;;3.23;88.48
13407;BME280;6774;48.208;10.766;2022-12-07T07:38:43;95501.06;;;3.18;88.03
13407;BME280;6774;48.208;10.766;2022-12-07T07:41:11;95504.75;;;3.25;88.10
13407;BME280;6774;48.208;10.766;2022-12-07T07:43:40;95504.06;;;3.23;88.08
13407;BME280;6774;48.208;10.766;2022-12-07T07:46:08;95499.66;;;3.23;87.76
13407;BME280;6774;48.208;10.766;2022-12-07T07:48:35;95501.84;;;3.28;88.13
13407;BME280;6774;48.208;10.766;2022-12-07T07:51:05;95500.59;;;3.32;87.75
13407;BME280;6774;48.208;10.766;2022-12-07T07:53:33;95498.81;;;3.32;87.89
13407;BME280;6774;48.208;10.766;2022-12-07T07:56:01;95506.50;;;3.34;87.82
13407;BME280;6774;48.208;10.766;2022-12-07T07:58:28;95509.66;;;3.28;87.71
13407;BME280;6774;48.208;10.766;2022-12-07T08:01:03;95511.59;;;3.26;88.20
13407;BME280;6774;48.208;10.766;2022-12-07T08:03:31;95502.38;;;3.31;87.87
13407;BME280;6774;48.208;10.766;2022-12-07T08:05:59;95499.63;;;3.33;87.36
13407;BME280;6774;48.208;10.766;2022-12-07T08:08:27;95503.59;;;3.37;87.22
13407;BME280;6774;48.208;10.766;2022-12-07T08:10:55;95499.59;;;3.42;86.84
13407;BME280;6774;48.208;10.766;2022-12-07T08:13:23;95510.16;;;3.41;87.13
13407;BME280;6774;48.208;10.766;2022-12-07T08:16:03;95498.09;;;3.40;87.04
13407;BME280;6774;48.208;10.766;2022-12-07T08:18:34;95511.81;;;3.42;87.44
13407;BME280;6774;48.208;10.766;2022-12-07T08:21:03;95507.28;;;3.44;87.01
13407;BME280;6774;48.208;10.766;2022-12-07T08:23:31;95514.41;;;3.42;86.86
13407;BME280;6774;48.208;10.766;2022-12-07T08:26:07;95512.06;;;3.49;86.82
13407;BME280;6774;48.208;10.766;2022-12-07T08:28:36;95524.00;;;3.51;86.77
13407;BME280;6774;48.208;10.766;2022-12-07T08:31:07;95516.94;;;3.61;86.84
13407;BME280;6774;48.208;10.766;2022-12-07T08:33:36;95516.38;;;3.67;86.82
13407;BME280;6774;48.208;10.766;2022-12-07T08:36:06;95528.75;;;3.56;86.69
13407;BME280;6774;48.208;10.766;2022-12-07T08:38:35;95518.00;;;3.68;86.29
13407;BME280;6774;48.208;10.766;2022-12-07T08:41:03;95513.72;;;3.77;86.28
13407;BME280;6774;48.208;10.766;2022-12-07T08:43:31;95517.25;;;3.86;86.41
13407;BME280;6774;48.208;10.766;2022-12-07T08:46:06;95519.25;;;3.92;85.60
13407;BME280;6774;48.208;10.766;2022-12-07T08:48:37;95512.69;;;3.88;85.27
13407;BME280;6774;48.208;10.766;2022-12-07T08:51:07;95511.03;;;3.87;85.25
13407;BME280;6774;48.208;10.766;2022-12-07T08:53:37;95509.09;;;3.89;85.34
13407;BME280;6774;48.208;10.766;2022-12-07T08:56:06;95504.66;;;3.99;84.97
13407;BME280;6774;48.208;10.766;2022-12-07T08:58:35;95502.69;;;4.01;84.66
13407;BME280;6774;48.208;10.766;2022-12-07T09:01:06;95501.16;;;4.26;84.64
13407;BME280;6774;48.208;10.766;2022-12-07T09:03:33;95496.59;;;4.46;83.09
13407;BME280;6774;48.208;10.766;2022-12-07T09:06:01;95507.28;;;4.52;82.51
13407;BME280;6774;48.208;10.766;2022-12-07T09:08:31;95503.66;;;5.15;83.02
13407;BME280;6774;48.208;10.766;2022-12-07T09:11:00;95497.41;;;5.68;78.83
13407;BME280;6774;48.208;10.766;2022-12-07T09:13:28;95499.31;;;5.58;78.18
13407;BME280;6774;48.208;10.766;2022-12-07T09:15:56;95491.19;;;5.69;77.64
13407;BME280;6774;48.208;10.766;2022-12-07T09:18:25;95497.22;;;5.35;77.77
13407;BME280;6774;48.208;10.766;2022-12-07T09:20:53;95504.69;;;5.22;78.33
13407;BME280;6774;48.208;10.766;2022-12-07T09:23:21;95501.28;;;5.30;78.36
13407;BME280;6774;48.208;10.766;2022-12-07T09:25:48;95502.13;;;5.30;77.53
13407;BME280;6774;48.208;10.766;2022-12-07T09:28:17;95493.59;;;5.28;77.83
13407;BME280;6774;48.208;10.766;2022-12-07T09:30:45;95493.91;;;5.25;77.54
13407;BME280;6774;48.208;10.766;2022-12-07T09:33:35;95495.75;;;5.33;77.83
13407;BME280;6774;48.208;10.766;2022-12-07T09:36:03;95497.50;;;5.24;77.95
13407;BME280;6774;48.208;10.766;2022-12-07T09:38:31;95499.13;;;5.25;78.71
13407;BME280;6774;48.208;10.766;2022-12-07T09:41:04;95500.66;;;5.36;77.76
13407;BME280;6774;48.208;10.766;2022-12-07T09:43:34;95497.28;;;5.43;77.72
13407;BME280;6774;48.208;10.766;2022-12-07T09:46:03;95487.63;;;5.44;77.94
13407;BME280;6774;48.208;10.766;2022-12-07T09:48:34;95490.78;;;5.56;77.80
13407;BME280;6774;48.208;10.766;2022-12-07T09:51:13;95484.22;;;5.52;76.21
13407;BME280;6774;48.208;10.766;2022-12-07T09:53:49;95483.91;;;5.55;75.50
13407;BME280;6774;48.208;10.766;2022-12-07T09:56:19;95488.94;;;5.40;75.45
13407;BME280;6774;48.208;10.766;2022-12-07T09:58:48;95485.88;;;5.53;76.84
13407;BME280;6774;48.208;10.766;2022-12-07T10:01:18;95481.53;;;5.69;75.68
13407;BME280;6774;48.208;10.766;2022-12-07T10:03:49;95482.38;;;5.78;75.08
13407;BME280;6774;48.208;10.766;2022-12-07T10:06:19;95482.78;;;5.99;75.07
13407;BME280;6774;48.208;10.766;2022-12-07T10:08:47;95487.47;;;5.46;74.43
13407;BME280;6774;48.208;10.766;2022-12-07T10:11:15;95486.69;;;5.53;75.29
13407;BME280;6774;48.208;10.766;2022-12-07T10:13:45;95480.25;;;6.73;72.16
13407;BME280;6774;48.208;10.766;2022-12-07T10:16:37;95482.22;;;6.54;70.60
13407;BME280;6774;48.208;10.766;2022-12-07T10:19:22;95478.22;;;7.24;69.72
13407;BME280;6774;48.208;10.766;2022-12-07T10:22:09;95470.47;;;7.38;68.65
13407;BME280;6774;48.208;10.766;2022-12-07T10:24:38;95471.38;;;7.62;65.45
13407;BME280;6774;48.208;10.766;2022-12-07T10:27:18;95467.63;;;7.56;66.98
13407;BME280;6774;48.208;10.766;2022-12-07T10:29:48;95468.88;;;8.62;64.26
13407;BME280;6774;48.208;10.766;2022-12-07T10:32:31;95462.81;;;8.99;63.30
13407;BME280;6774;48.208;10.766;2022-12-07T10:35:21;95462.38;;;9.10;61.94
13407;BME280;6774;48.208;10.766;2022-12-07T10:37:51;95460.31;;;9.35;60.94
13407;BME280;6774;48.208;10.766;2022-12-07T10:40:26;95457.03;;;9.48;61.82
13407;BME280;6774;48.208;10.766;2022-12-07T10:43:00;95456.94;;;9.56;60.26
13407;BME280;6774;48.208;10.766;2022-12-07T10:45:29;95450.63;;;9.86;60.97
13407;BME280;6774;48.208;10.766;2022-12-07T10:48:02;95446.03;;;9.59;59.26
13407;BME280;6774;48.208;10.766;2022-12-07T10:50:49;95444.97;;;8.71;63.23
13407;BME280;6774;48.208;10.766;2022-12-07T10:53:42;95449.78;;;8.82;62.78
13407;BME280;6774;48.208;10.766;2022-12-07T10:56:26;95448.66;;;8.77;62.28
13407;BME280;6774;48.208;10.766;2022-12-07T10:59:10;95446.16;;;8.15;62.22
13407;BME280;6774;48.208;10.766;2022-12-07T11:01:49;95446.03;;;8.08;64.78
13407;BME280;6774;48.208;10.766;2022-12-07T11:04:24;95443.75;;;8.05;66.20
13407;BME280;6774;48.208;10.766;2022-12-07T11:07:01;95437.63;;;8.81;64.35
13407;BME280;6774;48.208;10.766;2022-12-07T11:09:47;95424.41;;;10.78;60.08
13407;BME280;6774;48.208;10.766;2022-12-07T11:12:43;95415.22;;;12.13;57.58
13407;BME280;6774;48.208;10.766;2022-12-07T11:15:18;95409.59;;;12.42;55.00
13407;BME280;6774;48.208;10.766;2022-12-07T11:17:53;95402.72;;;13.07;53.68
13407;BME280;6774;48.208;10.766;2022-12-07T11:20:36;95398.09;;;13.74;51.94
13407;BME280;6774;48.208;10.766;2022-12-07T11:23:16;95390.91;;;14.89;48.89
13407;BME280;6774;48.208;10.766;2022-12-07T11:25:54;95382.91;;;15.57;47.60
13407;BME280;6774;48.208;10.766;2022-12-07T11:28:35;95385.94;;;15.18;47.91
13407;BME280;6774;48.208;10.766;2022-12-07T11:31:13;95396.53;;;14.99;47.96
13407;BME280;6774;48.208;10.766;2022-12-07T11:33:46;95390.00;;;12.10;49.93
13407;BME280;6774;48.208;10.766;2022-12-07T11:36:30;95384.44;;;11.44;54.13
13407;BME280;6774;48.208;10.766;2022-12-07T11:39:02;95390.84;;;10.23;56.19
13407;BME280;6774;48.208;10.766;2022-12-07T11:41:35;95390.22;;;10.42;54.70
13407;BME280;6774;48.208;10.766;2022-12-07T11:44:06;95393.59;;;10.58;55.20
13407;BME280;6774;48.208;10.766;2022-12-07T11:46:47;95390.03;;;10.22;56.40
13407;BME280;6774;48.208;10.766;2022-12-07T11:49:21;95392.81;;;8.90;59.00
13407;BME280;6774;48.208;10.766;2022-12-07T11:51:53;95392.84;;;8.52;60.22
13407;BME280;6774;48.208;10.766;2022-12-07T11:54:26;95383.47;;;7.81;61.74
13407;BME280;6774;48.208;10.766;2022-12-07T11:57:02;95375.50;;;7.66;63.88
13407;BME280;6774;48.208;10.766;2022-12-07T11:59:33;95388.59;;;7.43;65.35
13407;BME280;6774;48.208;10.766;2022-12-07T12:02:12;95381.25;;;7.92;63.74
13407;BME280;6774;48.208;10.766;2022-12-07T12:04:49;95376.03;;;8.15;64.77
13407;BME280;6774;48.208;10.766;2022-12-07T12:07:22;95372.94;;;8.35;63.69
13407;BME280;6774;48.208;10.766;2022-12-07T12:10:18;95371.78;;;7.60;66.30
13407;BME280;6774;48.208;10.766;2022-12-07T12:13:12;95366.84;;;8.11;64.49
13407;BME280;6774;48.208;10.766;2022-12-07T12:16:30;95361.34;;;7.98;63.79
13407;BME280;6774;48.208;10.766;2022-12-07T12:19:15;95363.34;;;7.96;65.15
13407;BME280;6774;48.208;10.766;2022-12-07T12:21:48;95369.84;;;7.77;62.66
13407;BME280;6774;48.208;10.766;2022-12-07T12:24:25;95359.00;;;7.18;66.49
13407;BME280;6774;48.208;10.766;2022-12-07T12:26:58;95358.75;;;7.36;65.68
13407;BME280;6774;48.208;10.766;2022-12-07T12:29:33;95352.31;;;7.07;65.84
13407;BME280;6774;48.208;10.766;2022-12-07T12:32:12;95352.75;;;6.64;65.61
13407;BME280;6774;48.208;10.766;2022-12-07T12:34:51;95349.78;;;6.75;66.56
13407;BME280;6774;48.208;10.766;2022-12-07T12:37:44;95348.97;;;6.66;67.17
13407;BME280;6774;48.208;10.766;2022-12-07T12:43:51;95345.22;;;6.77;67.76
13407;BME280;6774;48.208;10.766;2022-12-07T12:46:54;95346.53;;;7.20;65.43
13407;BME280;6774;48.208;10.766;2022-12-07T12:52:49;95342.25;;;6.72;66.09
13407;BME280;6774;48.208;10.766;2022-12-07T12:55:24;95333.13;;;6.60;66.94
13407;BME280;6774;48.208;10.766;2022-12-07T13:04:49;95332.34;;;6.98;66.53
13407;BME280;6774;48.208;10.766;2022-12-07T13:07:59;95339.56;;;7.04;67.57
13407;BME280;6774;48.208;10.766;2022-12-07T13:10:46;95338.72;;;7.43;67.92
13407;BME280;6774;48.208;10.766;2022-12-07T13:13:35;95340.50;;;7.74;67.85
13407;BME280;6774;48.208;10.766;2022-12-07T13:16:38;95334.25;;;7.75;67.68
13407;BME280;6774;48.208;10.766;2022-12-07T13:22:39;95331.09;;;8.25;66.86
13407;BME280;6774;48.208;10.766;2022-12-07T13:25:11;95324.44;;;8.14;65.26
13407;BME280;6774;48.208;10.766;2022-12-07T13:27:41;95320.44;;;7.81;63.27
13407;BME280;6774;48.208;10.766;2022-12-07T13:30:14;95326.69;;;6.78;68.03
13407;BME280;6774;48.208;10.766;2022-12-07T13:32:43;95329.47;;;6.77;68.63
13407;BME280;6774;48.208;10.766;2022-12-07T13:35:29;95332.72;;;6.87;69.59
13407;BME280;6774;48.208;10.766;2022-12-07T13:37:59;95332.00;;;7.01;68.83
13407;BME280;6774;48.208;10.766;2022-12-07T13:40:29;95328.38;;;7.41;67.51
13407;BME280;6774;48.208;10.766;2022-12-07T13:43:16;95328.03;;;7.67;68.11
13407;BME280;6774;48.208;10.766;2022-12-07T13:45:56;95321.00;;;7.91;68.74
13407;BME280;6774;48.208;10.766;2022-12-07T13:48:30;95328.53;;;7.94;68.49
13407;BME280;6774;48.208;10.766;2022-12-07T13:51:00;95316.44;;;8.08;69.09
13407;BME280;6774;48.208;10.766;2022-12-07T13:53:30;95313.22;;;8.20;67.07
13407;BME280;6774;48.208;10.766;2022-12-07T13:55:59;95314.94;;;8.51;66.71
13407;BME280;6774;48.208;10.766;2022-12-07T13:58:30;95312.72;;;8.40;66.52